Return to UIUC Weather Page  
Time Weather Temp Dew Pt Relative Humidity Winds Speed Gust Visibility Pressure Heat Index Wind Chill
Today
8:53AM Clear 46 39 76% W 10 mph 10 mi 1026.6 mb 30.31 in
7:53AM Clear 39 37 92% W 6 mph 6 mi 1025.6 mb 30.27 in
7:53AM Clear 39 37 92% W 6 mph 6 mi 1025.6 mb 30.27 in
6:53AM Clear 35 33 92% W 6 mph 10 mi 1024.8 mb 30.25 in 29
6:53AM Clear 35 33 92% W 6 mph 10 mi 1024.8 mb 30.25 in 29
4:53AM Partly Cloudy 37 34 88% W 8 mph 10 mi 1023.4 mb 30.21 in 31
4:53AM Partly Cloudy 37 34 88% W 8 mph 10 mi 1023.4 mb 30.21 in 31
3:53AM Clear 37 34 88% SW 6 mph 10 mi 1022.6 mb 30.19 in 32
3:53AM Clear 37 34 88% SW 6 mph 10 mi 1022.6 mb 30.19 in 32
2:53AM Clear 37 34 88% SW 6 mph 10 mi 1022.3 mb 30.18 in 32
2:53AM Clear 37 34 88% SW 6 mph 10 mi 1022.3 mb 30.18 in 32
1:53AM Clear 39 34 82% W 6 mph 10 mi 1022.1 mb 30.18 in
1:53AM Clear 39 34 82% W 6 mph 10 mi 1022.1 mb 30.18 in
12:53AM Clear 39 34 82% SW 6 mph 10 mi 1021.7 mb 30.16 in
12:53AM Clear 39 34 82% SW 6 mph 10 mi 1021.7 mb 30.16 in
Yesterday
Time Weather Temp Dew Pt Relative Humidity Winds Speed Gust Visibility Pressure Heat Index Wind Chill
10:53PM Clear 39 34 82% SW 6 mph 10 mi 1022.1 mb 30.17 in
8:53PM Clear 45 32 60% SW 10 mph 10 mi 1021.6 mb 30.15 in
8:53PM Clear 45 32 60% SW 10 mph 10 mi 1021.6 mb 30.15 in
7:53PM Clear 45 30 55% SW 9 mph 10 mi 1021.4 mb 30.15 in
7:53PM Clear 45 30 55% SW 9 mph 10 mi 1021.4 mb 30.15 in
6:53PM Clear 48 30 49% SW 10 mph 10 mi 1020.8 mb 30.13 in
3:53PM Clear 57 27 31% W 17 mph 27 mph 10 mi 1020.0 mb 30.12 in
3:53PM Clear 57 27 31% W 17 mph 27 mph 10 mi 1020.0 mb 30.12 in
2:53PM Clear 57 25 28% SW 18 mph 10 mi 1020.9 mb 30.14 in
2:53PM Clear 57 25 28% SW 18 mph 10 mi 1020.9 mb 30.14 in
1:53PM Clear 55 27 33% SW 17 mph 10 mi 1022.0 mb 30.17 in
12:53PM Clear 54 28 36% SW 13 mph 26 mph 10 mi 1023.5 mb 30.21 in
12:53PM Clear 54 28 36% SW 13 mph 26 mph 10 mi 1023.5 mb 30.21 in
10:53AM Clear 46 34 62% SW 14 mph 10 mi 1025.1 mb 30.26 in
9:53AM Clear 44 35 70% SW 12 mph 10 mi 1026.1 mb 30.28 in
Observations made at University of Illinois Willard Airport